Time;durP1;ratioP1;P1;durP2;ratioP2;P2;SDS_P1;SDS_P2;PMS_P1;PMS_P2;Temp;Humidity;BMP_temperature;BMP_pressure;BME280_temperature;BME280_humidity;BME280_pressure;Samples;Min_cycle;Max_cycle;Signal;HPM_P1;HPM_P2
2023/02/07 00:00:14;;;;;;;0.60;0.60;;;;;;;-0.93;81.00;98662.47;29373;229;63009;-59
2023/02/07 00:00:46;;;;;;;0.60;0.60;;;;;;;-0.92;81.07;98663.28;29373;208;63005;-63
2023/02/07 00:01:19;;;;;;;0.70;0.70;;;;;;;-0.93;81.06;98662.47;29373;202;63009;-59
2023/02/07 00:01:50;;;;;;;0.60;0.60;;;;;;;-0.95;81.21;98666.31;29373;266;63010;-59
2023/02/07 00:02:22;;;;;;;0.65;0.65;;;;;;;-0.98;81.25;98664.81;29371;225;64013;-66
2023/02/07 00:02:55;;;;;;;0.70;0.70;;;;;;;-0.95;80.71;98659.16;29371;197;64009;-58
2023/02/07 00:03:26;;;;;;;0.60;0.60;;;;;;;-0.92;80.54;98664.12;29373;204;63008;-59
2023/02/07 00:03:58;;;;;;;0.60;0.60;;;;;;;-0.91;80.30;98664.97;29373;204;63004;-59
2023/02/07 00:04:33;;;;;;;0.60;0.60;;;;;;;-0.89;79.80;98669.09;29373;287;63009;-59
2023/02/07 00:05:05;;;;;;;0.68;0.68;;;;;;;-0.88;79.26;98660.09;29373;207;63005;-58
2023/02/07 00:05:40;;;;;;;0.60;0.60;;;;;;;-0.94;78.99;98666.13;29373;256;63009;-58
2023/02/07 00:06:19;;;;;;;0.70;0.70;;;;;;;-0.99;79.07;98663.16;29373;224;63010;-64
2023/02/07 00:06:52;;;;;;;0.60;0.60;;;;;;;-1.01;78.91;98665.19;29373;218;63009;-59
2023/02/07 00:07:23;;;;;;;0.60;0.60;;;;;;;-1.04;78.66;98670.88;29371;202;64009;-58
2023/02/07 00:07:55;;;;;;;0.60;0.60;;;;;;;-1.04;78.85;98669.03;29373;282;63019;-58
2023/02/07 00:08:26;;;;;;;0.60;0.60;;;;;;;-1.06;78.51;98663.06;29373;247;63005;-60
2023/02/07 00:09:02;;;;;;;0.60;0.60;;;;;;;-1.03;77.73;98664.53;29373;197;63018;-58
2023/02/07 00:09:36;;;;;;;0.60;0.60;;;;;;;-1.03;78.21;98662.69;29373;245;63004;-58
2023/02/07 00:10:10;;;;;;;0.60;0.60;;;;;;;-1.06;77.71;98667.56;29373;250;63009;-59
2023/02/07 00:10:41;;;;;;;0.60;0.60;;;;;;;-1.12;77.99;98662.94;29373;248;63005;-59
2023/02/07 00:11:15;;;;;;;0.65;0.65;;;;;;;-1.15;78.38;98663.28;29373;217;63008;-59
2023/02/07 00:11:47;;;;;;;0.60;0.60;;;;;;;-1.18;78.91;98663.62;29373;231;63009;-59
2023/02/07 00:12:18;;;;;;;1.23;1.23;;;;;;;-1.16;78.84;98662.44;29371;206;64014;-61
2023/02/07 00:12:53;;;;;;;0.60;0.60;;;;;;;-1.12;78.23;98668.25;29373;261;63011;-61
2023/02/07 00:13:25;;;;;;;0.60;0.60;;;;;;;-1.12;77.80;98669.09;29373;212;63009;-65
2023/02/07 00:13:57;;;;;;;0.60;0.60;;;;;;;-1.14;77.63;98664.94;29373;221;63005;-61
2023/02/07 00:14:29;;;;;;;0.73;0.73;;;;;;;-1.15;78.36;98668.59;29373;266;63009;-61
2023/02/07 00:15:00;;;;;;;0.57;0.57;;;;;;;-1.11;76.93;98665.41;29373;224;63005;-60
2023/02/07 00:15:32;;;;;;;0.60;0.60;;;;;;;-1.08;76.94;98670.41;29373;242;63009;-59
2023/02/07 00:16:05;;;;;;;0.60;0.60;;;;;;;-1.05;76.35;98663.91;29373;214;63004;-59
2023/02/07 00:16:36;;;;;;;0.60;0.60;;;;;;;-1.09;76.28;98666.09;29373;252;63009;-58
2023/02/07 00:17:08;;;;;;;0.70;0.70;;;;;;;-1.14;76.71;98667.59;29373;202;63004;-59
2023/02/07 00:17:39;;;;;;;0.60;0.60;;;;;;;-1.21;77.19;98670.13;29371;199;64013;-60
2023/02/07 00:18:10;;;;;;;0.60;0.60;;;;;;;-1.26;77.68;98669.00;29373;199;63004;-58
2023/02/07 00:18:41;;;;;;;0.60;0.60;;;;;;;-1.32;77.27;98667.84;29373;198;63008;-59
2023/02/07 00:19:13;;;;;;;0.60;0.60;;;;;;;-1.36;77.97;98667.37;29373;213;63004;-59
2023/02/07 00:19:45;;;;;;;0.60;0.60;;;;;;;-1.39;78.21;98673.03;29373;197;63009;-60
2023/02/07 00:20:17;;;;;;;0.60;0.60;;;;;;;-1.42;78.68;98669.91;29373;207;63005;-61
2023/02/07 00:21:06;;;;;;;0.60;0.60;;;;;;;-1.40;78.00;98665.25;29373;242;63009;-59
2023/02/07 00:21:38;;;;;;;3.53;3.33;;;;;;;-1.36;78.19;98666.53;29373;206;63009;-58
2023/02/07 00:22:09;;;;;;;1.17;1.17;;;;;;;-1.36;77.56;98664.69;29373;259;63009;-59
2023/02/07 00:22:41;;;;;;;0.70;0.70;;;;;;;-1.35;77.87;98669.03;29371;219;64009;-62
2023/02/07 00:23:12;;;;;;;0.70;0.70;;;;;;;-1.33;78.04;98670.69;29373;211;63009;-59
2023/02/07 00:23:45;;;;;;;0.65;0.65;;;;;;;-1.34;77.48;98664.53;29373;203;63015;-59
2023/02/07 00:24:16;;;;;;;0.70;0.70;;;;;;;-1.38;77.46;98658.72;29373;217;63009;-59
2023/02/07 00:24:48;;;;;;;0.60;0.60;;;;;;;-1.43;77.47;98663.75;29373;197;63004;-60
2023/02/07 00:25:21;;;;;;;0.70;0.70;;;;;;;-1.52;77.04;98667.47;29373;207;63008;-58
2023/02/07 00:25:52;;;;;;;0.70;0.70;;;;;;;-1.54;77.55;98665.97;29373;226;63004;-60
2023/02/07 00:26:26;;;;;;;0.60;0.60;;;;;;;-1.55;77.32;98666.97;29373;247;63008;-59
2023/02/07 00:26:57;;;;;;;0.70;0.70;;;;;;;-1.56;77.70;98667.97;29371;215;64009;-65
2023/02/07 00:27:28;;;;;;;0.62;0.62;;;;;;;-1.55;76.72;98667.78;29373;246;63009;-59
2023/02/07 00:28:00;;;;;;;0.60;0.60;;;;;;;-1.49;76.50;98664.44;29373;237;63005;-62
2023/02/07 00:28:32;;;;;;;0.77;0.77;;;;;;;-1.49;76.09;98661.78;29373;219;63009;-58
2023/02/07 00:29:03;;;;;;;0.60;0.60;;;;;;;-1.55;76.97;98666.97;29373;214;63005;-59
2023/02/07 00:29:36;;;;;;;0.60;0.60;;;;;;;-1.60;77.22;98664.81;29373;227;63009;-59
2023/02/07 00:30:08;;;;;;;0.60;0.60;;;;;;;-1.66;77.13;98676.16;29371;199;64009;-59
2023/02/07 00:30:40;;;;;;;0.60;0.60;;;;;;;-1.71;77.80;98673.16;29371;244;64013;-59
2023/02/07 00:31:18;;;;;;;0.60;0.60;;;;;;;-1.72;77.87;98671.50;29373;282;63009;-58
2023/02/07 00:31:49;;;;;;;0.65;0.65;;;;;;;-1.76;78.02;98672.88;29373;227;63009;-59
2023/02/07 00:32:20;;;;;;;0.60;0.60;;;;;;;-1.75;78.12;98663.91;29373;206;63004;-60
2023/02/07 00:32:52;;;;;;;0.68;0.68;;;;;;;-1.77;77.95;98668.56;29373;197;63008;-59
2023/02/07 00:33:23;;;;;;;0.60;0.60;;;;;;;-1.79;78.16;98670.56;29373;197;63004;-64
2023/02/07 00:33:56;;;;;;;0.68;0.68;;;;;;;-1.80;78.25;98669.72;29373;282;63009;-59
2023/02/07 00:34:30;;;;;;;0.70;0.70;;;;;;;-1.79;78.59;98673.22;29373;240;63005;-60
2023/02/07 00:35:02;;;;;;;0.60;0.60;;;;;;;-1.80;78.50;98660.91;29373;202;63009;-59
2023/02/07 00:35:37;;;;;;;0.60;0.60;;;;;;;-1.82;78.74;98665.56;29371;246;64009;-59
2023/02/07 00:36:12;;;;;;;0.55;0.55;;;;;;;-1.82;78.96;98665.56;29373;252;63009;-70
2023/02/07 00:36:43;;;;;;;0.70;0.70;;;;;;;-1.82;78.65;98668.22;29373;220;63005;-64
2023/02/07 00:37:15;;;;;;;0.68;0.68;;;;;;;-1.82;78.17;98660.25;29373;202;63009;-59
2023/02/07 00:37:46;;;;;;;0.60;0.60;;;;;;;-1.80;78.42;98669.72;29373;232;63005;-59
2023/02/07 00:38:17;;;;;;;0.62;0.62;;;;;;;-1.78;78.40;98667.72;29371;204;64013;-60
2023/02/07 00:38:49;;;;;;;0.60;0.60;;;;;;;-1.80;78.17;98664.41;29373;211;63004;-59
2023/02/07 00:39:21;;;;;;;0.60;0.60;;;;;;;-1.80;78.20;98663.56;29373;213;63018;-59
2023/02/07 00:39:52;;;;;;;0.60;0.60;;;;;;;-1.83;78.28;98663.91;29373;222;63004;-59
2023/02/07 00:40:24;;;;;;;0.70;0.70;;;;;;;-1.83;78.36;98663.91;29373;207;63008;-58
2023/02/07 00:40:55;;;;;;;0.60;0.60;;;;;;;-1.89;78.04;98660.09;29373;204;63004;-59
2023/02/07 00:41:27;;;;;;;0.60;0.60;;;;;;;-1.92;78.41;98665.75;29373;206;63009;-58
2023/02/07 00:41:58;;;;;;;0.60;0.60;;;;;;;-1.94;78.79;98665.09;29373;307;63005;-59
2023/02/07 00:42:30;;;;;;;0.60;0.60;;;;;;;-1.96;79.10;98667.09;29371;230;64014;-59
2023/02/07 00:43:01;;;;;;;0.98;0.98;;;;;;;-1.95;79.13;98670.59;29373;199;63005;-60
2023/02/07 00:43:32;;;;;;;0.60;0.60;;;;;;;-1.97;79.00;98664.59;29373;224;63009;-60
2023/02/07 00:44:05;;;;;;;0.60;0.60;;;;;;;-1.94;78.06;98673.06;29373;222;63018;-59
2023/02/07 00:44:37;;;;;;;0.70;0.70;;;;;;;-1.97;77.75;98668.09;29373;249;63009;-59
2023/02/07 00:45:12;;;;;;;0.60;0.60;;;;;;;-1.99;78.15;98666.59;29373;212;63005;-67
2023/02/07 00:45:43;;;;;;;0.70;0.70;;;;;;;-2.03;78.10;98666.94;29373;212;63009;-59
2023/02/07 00:46:16;;;;;;;0.70;0.70;;;;;;;-2.03;78.66;98663.44;29373;215;63004;-59
2023/02/07 00:46:47;;;;;;;0.70;0.70;;;;;;;-2.06;78.66;98667.28;29373;201;63009;-59
2023/02/07 00:47:22;;;;;;;0.60;0.60;;;;;;;-2.08;78.26;98665.81;29373;233;63004;-59
2023/02/07 00:47:56;;;;;;;0.70;0.70;;;;;;;-2.09;78.71;98669.47;29371;262;64013;-59
2023/02/07 00:48:29;;;;;;;0.60;0.60;;;;;;;-2.11;79.13;98672.28;29373;202;63004;-58
2023/02/07 00:49:01;;;;;;;0.60;0.60;;;;;;;-2.11;79.43;98669.63;29373;202;63009;-69
2023/02/07 00:49:35;;;;;;;0.70;0.70;;;;;;;-2.10;79.72;98676.63;29371;255;64009;-59
2023/02/07 00:50:07;;;;;;;0.70;0.70;;;;;;;-2.11;80.18;98666.97;29373;262;63009;-60
2023/02/07 00:50:39;;;;;;;0.60;0.60;;;;;;;-2.12;80.04;98665.31;29373;220;63005;-59
2023/02/07 00:51:12;;;;;;;0.60;0.60;;;;;;;-2.13;79.25;98668.97;29373;219;63013;-59
2023/02/07 00:51:43;;;;;;;1.05;1.05;;;;;;;-2.15;79.17;98663.00;29373;203;63005;-59
2023/02/07 00:52:16;;;;;;;0.60;0.60;;;;;;;-2.17;79.07;98657.00;29373;202;63009;-59
2023/02/07 00:52:47;;;;;;;0.60;0.60;;;;;;;-2.16;79.33;98665.81;29373;207;63005;-69
2023/02/07 00:53:18;;;;;;;0.60;0.60;;;;;;;-2.19;79.25;98661.66;29373;212;63009;-60
2023/02/07 00:53:52;;;;;;;0.70;0.70;;;;;;;-2.18;79.62;98659.84;29373;249;63004;-59
2023/02/07 00:54:23;;;;;;;0.70;0.70;;;;;;;-2.18;79.26;98670.47;29373;218;63009;-60
2023/02/07 00:54:55;;;;;;;0.70;0.70;;;;;;;-2.18;79.82;98666.00;29371;216;64009;-59
2023/02/07 00:55:26;;;;;;;0.70;0.70;;;;;;;-2.20;80.16;98667.97;29373;218;63008;-60
2023/02/07 00:55:58;;;;;;;0.60;0.60;;;;;;;-2.21;79.96;98668.97;29373;259;63004;-58
2023/02/07 00:56:30;;;;;;;0.70;0.70;;;;;;;-2.24;79.88;98666.66;29373;232;63009;-60
2023/02/07 00:57:02;;;;;;;0.70;0.70;;;;;;;-2.23;80.07;98673.63;29371;224;64009;-59
2023/02/07 00:57:33;;;;;;;1.52;1.42;;;;;;;-2.21;80.19;98671.62;29373;229;63009;-70
2023/02/07 00:58:04;;;;;;;0.70;0.70;;;;;;;-2.20;80.23;98670.66;29373;258;63005;-59
2023/02/07 00:58:36;;;;;;;3.78;3.53;;;;;;;-2.19;79.80;98664.31;29373;213;63009;-59
2023/02/07 00:59:08;;;;;;;0.85;0.85;;;;;;;-2.16;80.08;98665.81;29373;233;63013;-60
2023/02/07 00:59:39;;;;;;;0.70;0.70;;;;;;;-2.15;79.68;98668.31;29373;271;63009;-59
2023/02/07 01:00:11;;;;;;;0.70;0.70;;;;;;;-2.16;79.30;98663.16;29373;268;63005;-58
2023/02/07 01:00:43;;;;;;;0.60;0.60;;;;;;;-2.17;79.14;98662.34;29373;251;63009;-58
2023/02/07 01:01:15;;;;;;;0.70;0.70;;;;;;;-2.17;79.56;98672.97;29373;219;63000;-60
2023/02/07 01:01:47;;;;;;;0.60;0.60;;;;;;;-2.15;79.61;98676.28;29373;234;63009;-59
2023/02/07 01:02:19;;;;;;;0.70;0.70;;;;;;;-2.18;78.93;98670.47;29371;199;64009;-59
2023/02/07 01:02:50;;;;;;;0.70;0.70;;;;;;;-2.19;78.87;98677.63;29373;213;63009;-59
2023/02/07 01:03:22;;;;;;;0.70;0.70;;;;;;;-2.19;79.10;98679.44;29371;237;64008;-59
2023/02/07 01:03:54;;;;;;;0.70;0.70;;;;;;;-2.18;79.18;98681.94;29373;284;63009;-68
2023/02/07 01:04:26;;;;;;;0.70;0.70;;;;;;;-2.17;79.61;98678.28;29373;225;63005;-60
2023/02/07 01:04:58;;;;;;;0.70;0.70;;;;;;;-2.16;79.82;98684.44;29373;289;63009;-59
2023/02/07 01:05:31;;;;;;;0.90;0.90;;;;;;;-2.16;80.06;98685.25;29373;219;63005;-60
2023/02/07 01:06:03;;;;;;;0.60;0.60;;;;;;;-2.16;80.57;98690.59;29373;203;63009;-59
2023/02/07 01:06:35;;;;;;;0.70;0.70;;;;;;;-2.15;80.79;98689.59;29373;225;63005;-69
2023/02/07 01:07:08;;;;;;;0.70;0.70;;;;;;;-2.19;80.23;98684.78;29373;204;63009;-59
2023/02/07 01:07:39;;;;;;;0.70;0.70;;;;;;;-2.22;80.61;98680.63;29373;196;63008;-58
2023/02/07 01:08:10;;;;;;;0.70;0.70;;;;;;;-2.23;80.23;98689.59;29373;283;63009;-70
2023/02/07 01:08:42;;;;;;;0.70;0.70;;;;;;;-2.23;80.47;98688.75;29371;260;64009;-59
2023/02/07 01:09:13;;;;;;;0.70;0.70;;;;;;;-2.24;80.21;98682.59;29373;202;63009;-70
2023/02/07 01:09:44;;;;;;;0.70;0.70;;;;;;;-2.23;80.22;98688.75;29373;210;63004;-70
2023/02/07 01:10:16;;;;;;;0.70;0.70;;;;;;;-2.24;80.73;98677.28;29373;267;63009;-71
2023/02/07 01:10:48;;;;;;;0.60;0.60;;;;;;;-2.23;80.51;98673.63;29373;218;63004;-70
2023/02/07 01:11:19;;;;;;;0.60;0.60;;;;;;;-2.24;80.81;98671.16;29373;270;63014;-59
2023/02/07 01:11:50;;;;;;;0.60;0.60;;;;;;;-2.24;80.70;98661.34;29371;230;64009;-60
2023/02/07 01:12:21;;;;;;;0.70;0.70;;;;;;;-2.25;80.60;98659.69;29371;274;64014;-59
2023/02/07 01:12:53;;;;;;;0.70;0.70;;;;;;;-2.24;80.61;98661.34;29373;231;63001;-59
2023/02/07 01:13:24;;;;;;;0.62;0.62;;;;;;;-2.25;80.37;98650.88;29373;232;63009;-58
2023/02/07 01:13:59;;;;;;;0.60;0.60;;;;;;;-2.22;80.09;98659.34;29373;218;63005;-59
2023/02/07 01:14:31;;;;;;;0.60;0.60;;;;;;;-2.17;79.34;98657.00;29373;246;63024;-59
2023/02/07 01:15:06;;;;;;;0.60;0.60;;;;;;;-2.12;78.99;98644.03;29373;216;63005;-59
2023/02/07 01:15:40;;;;;;;0.70;0.70;;;;;;;-2.12;79.09;98644.03;29373;231;63009;-69
2023/02/07 01:16:29;;;;;;;0.70;0.70;;;;;;;-2.13;79.44;98645.03;29373;222;63004;-60
2023/02/07 01:17:00;;;;;;;0.60;0.60;;;;;;;-2.15;79.48;98636.41;29371;219;64013;-59
2023/02/07 01:17:32;;;;;;;0.60;0.60;;;;;;;-2.16;79.66;98639.22;29373;283;63004;-69
2023/02/07 01:18:05;;;;;;;0.70;0.70;;;;;;;-2.17;79.86;98629.59;29373;198;63009;-59
2023/02/07 01:18:36;;;;;;;0.68;0.68;;;;;;;-2.16;80.02;98636.56;29373;201;63004;-60
2023/02/07 01:19:09;;;;;;;0.60;0.60;;;;;;;-2.14;79.18;98635.41;29373;216;63009;-59
2023/02/07 01:19:40;;;;;;;0.60;0.60;;;;;;;-2.13;79.25;98636.22;29371;224;64009;-58
2023/02/07 01:20:12;;;;;;;0.70;0.70;;;;;;;-2.10;78.49;98626.09;29373;233;63009;-61
2023/02/07 01:20:43;;;;;;;0.60;0.60;;;;;;;-2.10;78.44;98626.09;29373;233;63011;-59
2023/02/07 01:21:19;;;;;;;0.60;0.60;;;;;;;-2.14;78.57;98630.09;29373;202;63009;-60
2023/02/07 01:21:50;;;;;;;0.68;0.68;;;;;;;-2.18;78.38;98634.06;29373;211;63005;-60
2023/02/07 01:22:22;;;;;;;0.62;0.62;;;;;;;-2.21;78.73;98634.41;29373;262;63009;-58
2023/02/07 01:22:55;;;;;;;0.70;0.70;;;;;;;-2.25;78.86;98633.09;29373;269;63005;-59
2023/02/07 01:23:26;;;;;;;0.60;0.60;;;;;;;-2.29;79.16;98637.09;29372;284;63009;-59
2023/02/07 01:23:58;;;;;;;0.70;0.70;;;;;;;-2.30;79.41;98637.25;29373;220;63004;-59
2023/02/07 01:24:30;;;;;;;0.65;0.65;;;;;;;-2.31;79.56;98649.72;29371;247;64013;-58
2023/02/07 01:25:03;;;;;;;0.70;0.70;;;;;;;-2.34;79.65;98644.72;29373;208;63004;-59
2023/02/07 01:25:43;;;;;;;0.70;0.70;;;;;;;-2.37;79.83;98645.06;29373;204;63009;-59
2023/02/07 01:26:14;;;;;;;0.80;0.80;;;;;;;-2.38;80.00;98648.72;29373;215;63004;-60
2023/02/07 01:26:45;;;;;;;0.60;0.60;;;;;;;-2.38;80.00;98649.53;29373;197;63009;-58
2023/02/07 01:27:17;;;;;;;0.70;0.70;;;;;;;-2.35;79.91;98645.72;29373;197;63005;-59
2023/02/07 01:27:48;;;;;;;0.60;0.60;;;;;;;-2.34;79.84;98651.87;29373;222;63009;-60
2023/02/07 01:28:19;;;;;;;0.70;0.70;;;;;;;-2.33;79.52;98651.69;29373;214;63009;-58
2023/02/07 01:28:50;;;;;;;0.70;0.70;;;;;;;-2.32;79.34;98656.03;29373;220;63009;-59
2023/02/07 01:29:21;;;;;;;0.70;0.70;;;;;;;-2.32;79.14;98658.69;29373;204;63005;-59
2023/02/07 01:29:53;;;;;;;0.60;0.60;;;;;;;-2.32;79.20;98653.38;29371;247;64013;-60
2023/02/07 01:30:24;;;;;;;0.60;0.60;;;;;;;-2.33;79.26;98658.84;29373;220;63004;-59
2023/02/07 01:30:55;;;;;;;0.70;0.70;;;;;;;-2.36;79.43;98663.50;29371;219;64013;-60
2023/02/07 01:31:27;;;;;;;0.60;0.60;;;;;;;-2.36;79.89;98657.34;29373;213;63004;-58
2023/02/07 01:31:59;;;;;;;0.70;0.70;;;;;;;-2.37;79.76;98653.88;29373;242;63009;-70
2023/02/07 01:32:34;;;;;;;0.60;0.60;;;;;;;-2.37;79.85;98655.69;29373;206;63004;-58
2023/02/07 01:33:06;;;;;;;0.60;0.60;;;;;;;-2.38;79.92;98652.19;29373;240;63008;-60
2023/02/07 01:33:38;;;;;;;0.60;0.60;;;;;;;-2.40;79.67;98661.34;29373;260;63004;-59
2023/02/07 01:34:12;;;;;;;0.60;0.60;;;;;;;-2.39;80.07;98657.69;29373;266;63009;-60
2023/02/07 01:34:43;;;;;;;0.70;0.70;;;;;;;-2.39;80.13;98668.31;29373;197;63005;-59
2023/02/07 01:35:15;;;;;;;0.70;0.70;;;;;;;-2.42;79.84;98648.22;29373;254;63009;-58
2023/02/07 01:35:46;;;;;;;0.60;0.60;;;;;;;-2.42;80.38;98655.34;29373;224;63000;-59
2023/02/07 01:36:18;;;;;;;0.70;0.70;;;;;;;-2.43;80.38;98657.22;29371;234;64013;-59
2023/02/07 01:36:49;;;;;;;1.27;1.27;;;;;;;-2.43;80.79;98656.38;29373;246;63005;-59
2023/02/07 01:37:20;;;;;;;0.70;0.70;;;;;;;-2.42;80.76;98650.03;29373;202;63009;-60
2023/02/07 01:37:51;;;;;;;0.70;0.70;;;;;;;-2.40;80.97;98653.38;29373;238;63004;-71
2023/02/07 01:38:22;;;;;;;0.60;0.60;;;;;;;-2.39;80.51;98655.03;29373;213;63009;-59
2023/02/07 01:38:55;;;;;;;0.60;0.60;;;;;;;-2.42;80.68;98663.34;29373;231;63004;-60
2023/02/07 01:39:27;;;;;;;0.70;0.70;;;;;;;-2.45;80.41;98663.69;29371;252;64013;-58
2023/02/07 01:39:58;;;;;;;0.70;0.70;;;;;;;-2.46;80.79;98662.03;29373;206;63004;-59
2023/02/07 01:40:30;;;;;;;0.70;0.70;;;;;;;-2.45;80.85;98669.00;29373;198;63008;-59
2023/02/07 01:41:02;;;;;;;0.70;0.70;;;;;;;-2.47;80.55;98671.84;29373;209;63005;-59
2023/02/07 01:41:34;;;;;;;0.70;0.70;;;;;;;-2.47;80.80;98671.00;29373;216;63009;-60
2023/02/07 01:42:06;;;;;;;0.70;0.70;;;;;;;-2.48;80.94;98683.47;29373;263;63005;-60
2023/02/07 01:42:37;;;;;;;7.47;6.75;;;;;;;-2.51;80.87;98675.00;29373;220;63009;-60
2023/02/07 01:43:21;;;;;;;0.62;0.62;;;;;;;-2.52;81.49;98681.31;29373;326;63005;-60
2023/02/07 01:44:27;;;;;;;0.60;0.60;;;;;;;-2.53;81.45;98682.31;29373;273;63009;-60
2023/02/07 01:45:03;;;;;;;0.70;0.70;;;;;;;-2.52;82.10;98686.62;29371;226;64009;-60
2023/02/07 01:45:38;;;;;;;0.70;0.70;;;;;;;-2.55;82.02;98684.28;29373;290;63009;-75
2023/02/07 01:46:09;;;;;;;0.95;0.95;;;;;;;-2.57;81.90;98684.47;29373;263;63009;-59
2023/02/07 01:46:42;;;;;;;0.70;0.70;;;;;;;-2.57;81.78;98686.28;29373;343;63009;-60
2023/02/07 01:47:18;;;;;;;0.70;0.70;;;;;;;-2.56;82.12;98685.28;29373;268;63004;-59
2023/02/07 01:47:53;;;;;;;0.70;0.70;;;;;;;-2.54;82.47;98686.78;29373;205;63008;-59
2023/02/07 01:48:31;;;;;;;0.60;0.60;;;;;;;-2.53;83.18;98687.63;29373;224;63008;-76
2023/02/07 01:49:09;;;;;;;0.70;0.70;;;;;;;-2.57;82.55;98686.28;29373;199;63009;-75
2023/02/07 01:49:42;;;;;;;0.90;0.90;;;;;;;-2.62;82.48;98691.25;29371;202;64009;-60
2023/02/07 01:50:15;;;;;;;0.70;0.70;;;;;;;-2.64;82.47;98691.41;29373;197;63009;-59
2023/02/07 01:50:49;;;;;;;0.60;0.60;;;;;;;-2.64;82.42;98691.41;29373;198;63005;-77
2023/02/07 01:51:21;;;;;;;0.70;0.70;;;;;;;-2.65;82.63;98688.94;29373;209;63009;-59
2023/02/07 01:51:58;;;;;;;0.70;0.70;;;;;;;-2.65;82.90;98688.94;29373;259;63005;-59
2023/02/07 01:52:37;;;;;;;0.70;0.70;;;;;;;-2.66;82.91;98690.75;29373;201;63009;-60
2023/02/07 01:53:11;;;;;;;0.70;0.70;;;;;;;-2.66;83.08;98692.59;29373;220;63004;-61
2023/02/07 01:53:43;;;;;;;0.70;0.70;;;;;;;-2.65;83.55;98688.94;29373;204;63020;-59
2023/02/07 01:54:17;;;;;;;1.87;1.85;;;;;;;-2.64;83.78;98695.91;29373;272;63004;-59
2023/02/07 01:54:56;;;;;;;0.70;0.70;;;;;;;-2.63;83.59;98697.56;29371;270;64013;-75
2023/02/07 01:55:35;;;;;;;0.70;0.70;;;;;;;-2.60;83.49;98697.25;29373;198;63014;-59
2023/02/07 01:56:10;;;;;;;0.70;0.70;;;;;;;-2.58;83.31;98695.25;29373;247;63009;-60
2023/02/07 01:56:50;;;;;;;0.70;0.70;;;;;;;-2.56;83.51;98695.91;29373;233;63005;-60
2023/02/07 01:57:22;;;;;;;0.70;0.70;;;;;;;-2.57;83.72;98704.87;29373;208;63009;-60
2023/02/07 01:57:54;;;;;;;0.60;0.60;;;;;;;-2.58;83.60;98697.91;29373;199;63005;-59
2023/02/07 01:58:27;;;;;;;0.60;0.60;;;;;;;-2.53;83.07;98693.75;29373;241;63009;-60
2023/02/07 01:59:05;;;;;;;0.70;0.70;;;;;;;-2.52;82.41;98689.28;29373;229;63005;-59
2023/02/07 01:59:42;;;;;;;0.70;0.70;;;;;;;-2.52;82.57;98694.59;29373;212;63009;-60
2023/02/07 02:00:16;;;;;;;0.70;0.70;;;;;;;-2.42;82.94;98695.25;29371;209;64009;-59
2023/02/07 02:00:49;;;;;;;0.70;0.70;;;;;;;-2.40;82.64;98704.72;29373;202;63009;-60
2023/02/07 02:01:24;;;;;;;0.70;0.70;;;;;;;-2.41;82.82;98691.59;29373;227;63004;-59
2023/02/07 02:01:57;;;;;;;0.70;0.70;;;;;;;-2.45;82.53;98690.28;29373;303;63009;-61
2023/02/07 02:02:33;;;;;;;0.70;0.70;;;;;;;-2.47;82.53;98686.97;29373;221;63004;-59
2023/02/07 02:03:05;;;;;;;0.70;0.70;;;;;;;-2.47;82.91;98692.28;29373;296;63013;-59
2023/02/07 02:03:41;;;;;;;1.12;1.12;;;;;;;-2.46;82.88;98685.97;29373;201;63005;-73
2023/02/07 02:04:13;;;;;;;0.70;0.70;;;;;;;-2.46;83.21;98689.44;29371;231;64014;-60
2023/02/07 02:04:44;;;;;;;0.70;0.70;;;;;;;-2.46;83.78;98689.44;29373;220;63011;-59
2023/02/07 02:05:18;;;;;;;0.60;0.60;;;;;;;-2.49;83.82;98684.47;29373;242;63009;-60
2023/02/07 02:05:55;;;;;;;0.70;0.70;;;;;;;-2.49;83.08;98688.94;29373;329;63000;-61
2023/02/07 02:06:30;;;;;;;0.70;0.70;;;;;;;-2.49;83.10;98683.63;29373;197;63009;-60
2023/02/07 02:07:07;;;;;;;0.70;0.70;;;;;;;-2.49;82.31;98683.63;29373;218;63005;-60
2023/02/07 02:07:39;;;;;;;1.37;1.02;;;;;;;-2.46;82.59;98689.44;29373;202;63009;-58
2023/02/07 02:08:10;;;;;;;0.70;0.70;;;;;;;-2.41;82.16;98680.94;29373;265;63004;-60
2023/02/07 02:08:42;;;;;;;0.70;0.70;;;;;;;-2.38;81.98;98686.75;29373;267;63009;-60
2023/02/07 02:09:15;;;;;;;0.88;0.88;;;;;;;-2.38;81.07;98686.75;29371;204;64009;-60
2023/02/07 02:09:47;;;;;;;0.60;0.60;;;;;;;-2.38;81.19;98685.94;29373;203;63009;-60
2023/02/07 02:10:23;;;;;;;0.60;0.60;;;;;;;-2.41;81.32;98680.94;29373;257;63004;-60
2023/02/07 02:11:40;;;;;;;0.70;0.70;;;;;;;-2.47;81.76;98682.47;29373;294;63008;-60
2023/02/07 02:12:49;;;;;;;0.70;0.70;;;;;;;-2.42;81.60;98685.44;29373;241;63005;-59
2023/02/07 02:13:51;;;;;;;0.70;0.70;;;;;;;-2.42;81.57;98689.91;29373;202;63012;-60
2023/02/07 02:14:47;;;;;;;0.70;0.70;;;;;;;-2.49;81.41;98689.78;29371;235;64013;-59
2023/02/07 02:15:56;;;;;;;0.60;0.60;;;;;;;-2.36;80.49;98686.59;29371;276;64009;-59
2023/02/07 02:17:13;;;;;;;3.47;3.35;;;;;;;-2.43;80.46;98681.16;29373;245;63009;-60
2023/02/07 02:18:25;;;;;;;0.70;0.70;;;;;;;-2.51;80.51;98680.31;29373;222;63004;-59
2023/02/07 02:19:58;;;;;;;0.70;0.70;;;;;;;-2.62;81.41;98685.94;29393;231;64009;-57
2023/02/07 02:21:15;;;;;;;0.70;0.70;;;;;;;-2.64;82.28;98686.09;29395;197;63009;-58
2023/02/07 02:22:33;;;;;;;0.60;0.60;;;;;;;-2.69;82.32;98683.13;29373;221;63010;-60
2023/02/07 02:23:42;;;;;;;0.75;0.75;;;;;;;-2.75;81.86;98678.44;29373;208;63009;-61
2023/02/07 02:25:04;;;;;;;0.70;0.70;;;;;;;-2.66;81.33;98684.59;29371;350;64009;-60
2023/02/07 02:26:26;;;;;;;0.70;0.70;;;;;;;-2.63;81.70;98682.47;29395;216;63008;-60
2023/02/07 02:27:24;;;;;;;0.70;0.70;;;;;;;-2.64;81.08;98686.09;29395;235;63008;-60
2023/02/07 02:28:40;;;;;;;0.70;0.70;;;;;;;-2.66;81.69;98676.63;29373;197;63009;-61
2023/02/07 02:29:48;;;;;;;0.70;0.70;;;;;;;-2.80;81.76;98678.97;29373;267;63005;-60
2023/02/07 02:30:48;;;;;;;0.70;0.70;;;;;;;-2.80;82.25;98678.16;29371;233;64013;-60
2023/02/07 02:32:11;;;;;;;0.93;0.93;;;;;;;-2.77;81.90;98678.62;29373;200;63004;-60
2023/02/07 02:33:44;;;;;;;0.70;0.70;;;;;;;-2.79;81.71;98677.97;29395;289;63008;-60
2023/02/07 02:34:53;;;;;;;0.70;0.70;;;;;;;-2.81;81.53;98674.66;29395;276;63005;-61
2023/02/07 02:35:47;;;;;;;0.70;0.70;;;;;;;-2.80;81.19;98680.81;29371;352;64013;-60
2023/02/07 02:36:50;;;;;;;0.60;0.60;;;;;;;-2.77;80.81;98673.31;29373;293;63005;-60
2023/02/07 02:37:47;;;;;;;0.70;0.70;;;;;;;-2.84;80.90;98680.28;29373;310;63009;-60
2023/02/07 02:38:59;;;;;;;0.70;0.70;;;;;;;-2.95;80.59;98677.94;29373;218;63004;-60
2023/02/07 02:40:24;;;;;;;0.70;0.70;;;;;;;-2.99;81.21;98671.28;29373;204;63008;-60
2023/02/07 02:41:27;;;;;;;0.70;0.70;;;;;;;-2.99;81.77;98673.94;29371;203;64009;-62
2023/02/07 02:42:43;;;;;;;0.70;0.70;;;;;;;-2.97;81.48;98671.12;29373;218;63009;-59
2023/02/07 02:43:45;;;;;;;0.80;0.80;;;;;;;-2.97;81.70;98674.63;29373;307;63005;-61
2023/02/07 02:44:30;;;;;;;0.70;0.70;;;;;;;-2.90;81.31;98667.66;29373;211;63009;-62
2023/02/07 02:45:09;;;;;;;0.70;0.70;;;;;;;-2.82;80.60;98666.84;29373;208;63000;-61
2023/02/07 02:45:48;;;;;;;0.70;0.70;;;;;;;-2.78;80.27;98663.69;29395;199;63009;-60
2023/02/07 02:46:29;;;;;;;0.70;0.70;;;;;;;-2.81;80.05;98669.34;29394;238;64009;-60
2023/02/07 02:47:02;;;;;;;0.70;0.70;;;;;;;-2.82;80.03;98667.69;29395;295;63008;-60
2023/02/07 02:47:35;;;;;;;0.70;0.70;;;;;;;-2.77;80.41;98665.34;29395;281;63004;-61
2023/02/07 02:48:10;;;;;;;0.70;0.70;;;;;;;-2.79;80.30;98661.22;29373;197;63009;-60
2023/02/07 02:48:43;;;;;;;0.80;0.80;;;;;;;-2.80;80.19;98665.69;29373;311;63005;-60
2023/02/07 02:49:16;;;;;;;3.83;2.55;;;;;;;-2.82;80.11;98662.38;29373;219;63009;-61
2023/02/07 02:49:49;;;;;;;0.70;0.70;;;;;;;-2.80;80.11;98665.69;29373;199;63005;-60
2023/02/07 02:50:27;;;;;;;0.70;0.70;;;;;;;-2.78;79.95;98663.69;29373;284;63009;-59
2023/02/07 02:50:59;;;;;;;0.93;0.93;;;;;;;-2.79;79.29;98661.22;29373;238;63005;-60
2023/02/07 02:51:31;;;;;;;0.70;0.70;;;;;;;-2.80;79.28;98660.37;29371;218;64013;-61
2023/02/07 02:52:04;;;;;;;0.70;0.70;;;;;;;-2.81;79.75;98668.50;29373;349;63008;-60
2023/02/07 02:52:35;;;;;;;0.70;0.70;;;;;;;-2.86;80.12;98655.72;29373;343;63004;-60
2023/02/07 02:53:08;;;;;;;0.70;0.70;;;;;;;-2.91;80.08;98658.03;29373;223;63004;-60
2023/02/07 02:53:39;;;;;;;0.70;0.70;;;;;;;-2.94;80.23;98663.66;29373;214;63009;-64
2023/02/07 02:54:33;;;;;;;0.77;0.77;;;;;;;-2.97;80.84;98664.00;29373;306;63004;-61
2023/02/07 02:55:05;;;;;;;0.82;0.82;;;;;;;-3.06;80.33;98659.66;29371;235;64008;-60
2023/02/07 02:56:18;;;;;;;1.92;1.87;;;;;;;-3.09;80.88;98670.59;29373;213;63009;-64